Time;durP1;ratioP1;P1;durP2;ratioP2;P2;SDS_P1;SDS_P2;PMS_P1;PMS_P2;Temp;Humidity;BMP_temperature;BMP_pressure;BME280_temperature;BME280_humidity;BME280_pressure;Samples;Min_cycle;Max_cycle;Signal;HPM_P1;HPM_P2
2021/12/12 00:01:22;;;;;;;24.53;8.67;;;;;;;1.89;31.54;100824.84;5092849;28;20058;-74
2021/12/12 00:03:53;;;;;;;23.47;9.47;;;;;;;1.84;31.41;100818.97;5075139;28;20036;-75
2021/12/12 00:06:20;;;;;;;27.65;9.25;;;;;;;1.68;31.05;100839.81;5091838;28;20120;-75
2021/12/12 00:08:54;;;;;;;55.90;8.43;;;;;;;1.38;33.31;100849.94;5075564;28;20096;-74
2021/12/12 00:11:23;;;;;;;22.67;8.43;;;;;;;1.33;33.11;100833.63;5091812;28;20055;-75
2021/12/12 00:14:14;;;;;;;35.37;9.93;;;;;;;2.37;31.75;100852.06;5058470;28;20044;-74
2021/12/12 00:16:40;;;;;;;32.03;10.00;;;;;;;1.20;32.50;100847.34;5082204;28;20051;-74
2021/12/12 00:19:07;;;;;;;24.13;9.17;;;;;;;1.83;32.20;100846.91;5092207;28;20090;-74
2021/12/12 00:21:34;;;;;;;28.13;9.43;;;;;;;1.92;31.92;100854.34;5076618;28;20151;-75
2021/12/12 00:24:01;;;;;;;27.33;8.67;;;;;;;2.02;32.23;100846.88;5091776;28;20063;-74
2021/12/12 00:26:27;;;;;;;48.93;9.23;;;;;;;1.40;32.28;100849.88;5057805;28;20209;-75
2021/12/12 00:28:53;;;;;;;19.20;8.87;;;;;;;1.60;32.44;100862.88;5074705;28;20131;-74
2021/12/12 00:31:21;;;;;;;25.70;9.00;;;;;;;2.04;31.87;100868.63;5074083;28;20058;-74
2021/12/12 00:33:49;;;;;;;20.07;8.67;;;;;;;1.96;32.50;100855.91;5073707;28;20100;-74
2021/12/12 00:36:18;;;;;;;22.13;9.53;;;;;;;1.56;32.44;100883.13;5074782;28;20407;-74
2021/12/12 00:38:51;;;;;;;25.77;8.23;;;;;;;1.62;32.71;100868.91;5091892;28;20047;-74
2021/12/12 00:41:26;;;;;;;24.93;9.83;;;;;;;2.18;32.10;100859.16;5058416;28;20457;-74
2021/12/12 00:43:52;;;;;;;20.50;8.73;;;;;;;1.64;32.09;100874.91;5074978;28;20101;-75
2021/12/12 00:46:19;;;;;;;24.43;8.50;;;;;;;2.04;31.67;100839.78;5091858;28;20048;-75
2021/12/12 00:48:45;;;;;;;24.47;8.97;;;;;;;1.60;32.58;100850.66;5074305;28;20507;-75
2021/12/12 00:51:15;;;;;;;37.30;9.10;;;;;;;2.06;32.01;100872.84;5057427;28;20051;-74
2021/12/12 00:53:41;;;;;;;32.23;9.93;;;;;;;1.61;32.53;100869.81;5074750;28;20366;-74
2021/12/12 00:56:08;;;;;;;23.37;9.00;;;;;;;1.06;33.43;100881.13;5091286;28;20047;-74
2021/12/12 00:58:34;;;;;;;29.27;10.80;;;;;;;1.62;32.89;100875.00;5057734;28;20044;-74
2021/12/12 01:01:27;;;;;;;20.80;8.40;;;;;;;2.02;32.06;100883.56;5073845;28;20488;-74
2021/12/12 01:04:04;;;;;;;31.70;10.23;;;;;;;2.00;32.93;100878.38;5090189;28;20121;-74
2021/12/12 01:06:30;;;;;;;20.27;8.30;;;;;;;0.96;33.16;100901.59;5090807;28;20074;-74
2021/12/12 01:09:03;;;;;;;30.37;9.87;;;;;;;1.32;33.60;100878.19;5074119;28;20051;-74
2021/12/12 01:11:40;;;;;;;27.67;8.70;;;;;;;1.90;32.90;100865.81;5092418;28;20040;-75
2021/12/12 01:14:13;;;;;;;30.77;9.27;;;;;;;1.91;33.19;100867.53;5057799;28;20044;-74
2021/12/12 01:16:44;;;;;;;25.57;10.23;;;;;;;2.32;32.46;100876.84;5042655;28;20036;-74
2021/12/12 01:19:17;;;;;;;30.90;9.60;;;;;;;2.49;31.81;100877.66;5093188;28;20039;-73
2021/12/12 01:21:47;;;;;;;30.43;10.03;;;;;;;2.35;32.14;100888.03;5057255;28;20047;-73
2021/12/12 01:24:18;;;;;;;26.48;10.10;;;;;;;2.03;32.01;100806.66;5090670;28;20052;-73
2021/12/12 01:26:46;;;;;;;30.27;9.60;;;;;;;1.44;32.84;100851.44;5091308;28;20072;-74
2021/12/12 01:29:12;;;;;;;36.83;9.57;;;;;;;1.51;32.32;100865.94;5091165;28;20130;-73
2021/12/12 01:31:46;;;;;;;30.53;10.60;;;;;;;2.01;32.47;100863.53;5074875;28;20131;-75
2021/12/12 01:34:16;;;;;;;28.13;9.67;;;;;;;2.15;32.68;100861.09;5090665;28;20063;-73
2021/12/12 01:37:42;;;;;;;33.00;9.70;;;;;;;2.49;32.23;100833.09;5073358;28;20089;-73
2021/12/12 01:40:09;;;;;;;28.93;9.77;;;;;;;2.83;31.11;100869.78;5087535;28;20079;-73
2021/12/12 01:42:40;;;;;;;26.40;9.20;;;;;;;2.85;30.89;100862.69;5090971;28;20147;-74
2021/12/12 01:45:23;;;;;;;25.23;9.17;;;;;;;2.85;31.26;100862.69;5057218;28;20121;-74
2021/12/12 01:48:21;;;;;;;21.03;8.67;;;;;;;2.09;32.05;100861.38;5056823;28;20039;-74
2021/12/12 01:50:51;;;;;;;31.93;8.50;;;;;;;2.25;32.23;100852.69;5046472;28;20075;-74
2021/12/12 01:53:19;;;;;;;31.03;8.43;;;;;;;2.02;32.43;100852.13;5073471;28;20424;-73
2021/12/12 01:56:18;;;;;;;20.83;9.67;;;;;;;2.58;31.84;100851.00;5090391;28;20047;-73
2021/12/12 01:58:48;;;;;;;23.43;8.93;;;;;;;1.95;33.18;100853.34;5068638;28;20055;-74
2021/12/12 02:01:43;;;;;;;29.20;9.20;;;;;;;2.26;32.47;100845.69;5092097;28;20055;-73
2021/12/12 02:04:14;;;;;;;25.77;9.10;;;;;;;2.33;32.40;100849.69;5069460;28;20048;-74
2021/12/12 02:06:44;;;;;;;30.47;8.60;;;;;;;2.14;32.69;100848.91;5073850;28;20052;-74
2021/12/12 02:09:10;;;;;;;37.27;9.93;;;;;;;1.71;32.77;100850.13;5074206;28;20503;-74
2021/12/12 02:11:39;;;;;;;27.30;9.60;;;;;;;2.36;32.67;100839.91;5073711;28;20071;-74
2021/12/12 02:14:11;;;;;;;32.70;9.73;;;;;;;2.23;32.76;100836.19;5090274;28;20043;-74
2021/12/12 02:16:43;;;;;;;24.93;9.10;;;;;;;2.28;32.97;100842.06;5057474;28;20408;-74
2021/12/12 02:19:10;;;;;;;23.00;9.00;;;;;;;2.34;32.18;100833.88;5056904;28;20047;-75
2021/12/12 02:21:55;;;;;;;27.87;9.40;;;;;;;2.39;31.92;100845.00;5056879;28;20044;-74
2021/12/12 02:35:37;;;;;;;25.20;8.97;;;;;;;2.67;31.82;100849.66;5089828;28;20052;-75
2021/12/12 02:38:05;;;;;;;22.10;8.63;;;;;;;2.12;32.69;100841.13;5089903;28;20044;-73
2021/12/12 02:40:35;;;;;;;25.30;8.17;;;;;;;1.92;33.14;100832.53;5090250;28;20472;-73
2021/12/12 02:43:01;;;;;;;27.58;9.93;;;;;;;1.64;33.88;100830.41;5089594;28;20130;-73
2021/12/12 02:45:30;;;;;;;25.90;9.23;;;;;;;1.58;33.49;100825.47;5106636;28;20044;-73
2021/12/12 02:48:01;;;;;;;24.47;9.17;;;;;;;2.03;33.12;100825.84;5090998;28;20050;-73
2021/12/12 02:50:37;;;;;;;;;;;;;;;2.76;32.22;100831.69;5073643;28;20103;-73
2021/12/12 02:53:16;;;;;;;18.70;7.93;;;;;;;2.68;32.61;100826.00;5089528;28;20027;-73
2021/12/12 02:55:46;;;;;;;20.80;8.57;;;;;;;2.30;33.11;100823.63;5093301;28;20044;-73
2021/12/12 02:58:16;;;;;;;23.55;8.52;;;;;;;2.44;32.75;100801.03;5061590;28;20101;-73
2021/12/12 03:00:59;;;;;;;26.03;8.83;;;;;;;2.67;32.50;100824.31;5094389;28;20064;-74
2021/12/12 03:03:28;;;;;;;34.50;9.57;;;;;;;2.46;32.84;100824.56;5093375;28;20104;-73
2021/12/12 03:05:54;;;;;;;18.10;7.73;;;;;;;2.00;33.30;100820.75;5059720;28;20063;-74
2021/12/12 03:08:20;;;;;;;27.53;8.37;;;;;;;2.01;33.36;100819.84;5059531;28;20040;-73
2021/12/12 03:10:49;;;;;;;24.60;8.40;;;;;;;2.61;32.85;100814.13;5076298;28;20043;-74
2021/12/12 03:13:16;;;;;;;77.53;11.13;;;;;;;1.83;34.19;100825.97;5093249;28;20053;-73
2021/12/12 03:15:42;;;;;;;45.63;9.87;;;;;;;1.80;34.11;100822.66;5093441;28;20059;-74
2021/12/12 03:18:20;;;;;;;34.53;8.33;;;;;;;2.12;33.76;100804.44;5093925;28;20531;-73
2021/12/12 03:20:50;;;;;;;39.30;9.93;;;;;;;1.96;33.91;100823.59;5093347;28;20074;-73
2021/12/12 03:23:26;;;;;;;886.53;56.58;;;;;;;1.95;34.62;100821.91;5094143;28;20044;-73
2021/12/12 03:25:56;;;;;;;31.30;8.93;;;;;;;2.14;34.05;100812.22;5075937;28;20040;-73
2021/12/12 03:28:24;;;;;;;41.38;8.38;;;;;;;2.35;33.66;100824.25;5075705;28;20052;-73
2021/12/12 03:30:55;;;;;;;35.27;9.90;;;;;;;2.52;33.27;100834.72;5059078;28;20051;-73
2021/12/12 03:33:21;;;;;;;30.67;8.57;;;;;;;1.29;34.26;100818.97;5076177;28;20119;-73
2021/12/12 03:35:50;;;;;;;33.07;8.77;;;;;;;2.35;33.40;100817.25;5059248;28;20047;-73
2021/12/12 03:38:16;;;;;;;34.67;9.37;;;;;;;1.48;33.59;100783.16;5059288;28;20079;-75
2021/12/12 03:40:44;;;;;;;40.10;8.53;;;;;;;1.33;34.03;100807.44;5076152;28;20104;-73
2021/12/12 03:43:10;;;;;;;25.43;8.70;;;;;;;2.18;32.98;100819.00;5092931;28;20040;-73
2021/12/12 03:45:37;;;;;;;38.53;9.77;;;;;;;2.02;32.97;100808.44;5093209;28;20048;-74
2021/12/12 03:48:11;;;;;;;21.37;7.90;;;;;;;2.09;33.03;100814.22;5059402;28;20046;-73
2021/12/12 03:50:39;;;;;;;22.83;9.43;;;;;;;1.58;33.55;100822.84;5093894;28;20178;-73
2021/12/12 03:53:05;;;;;;;27.73;9.77;;;;;;;1.45;33.71;100834.81;5060951;28;20036;-75
2021/12/12 03:55:31;;;;;;;26.77;8.77;;;;;;;1.85;33.66;100818.88;5093727;28;20044;-73
2021/12/12 03:57:58;;;;;;;23.07;9.33;;;;;;;1.57;33.79;100827.22;5076102;28;20040;-74
2021/12/12 04:00:31;;;;;;;33.40;10.20;;;;;;;1.96;33.27;100836.69;5091831;28;20036;-73
2021/12/12 04:02:57;;;;;;;28.77;9.57;;;;;;;1.35;32.96;100846.63;5058727;28;20051;-73
2021/12/12 04:05:24;;;;;;;35.07;9.20;;;;;;;1.37;33.51;100829.06;5091914;28;20055;-74
2021/12/12 04:07:50;;;;;;;22.63;9.33;;;;;;;1.49;33.09;100828.53;5108945;28;20419;-73
2021/12/12 04:10:20;;;;;;;98.33;11.37;;;;;;;1.69;33.44;100829.25;5075512;28;20105;-73
2021/12/12 04:12:47;;;;;;;34.42;10.52;;;;;;;1.41;32.69;100835.88;5075761;28;20093;-75
2021/12/12 04:15:14;;;;;;;53.57;9.60;;;;;;;1.00;34.14;100822.06;5074526;28;20099;-73
2021/12/12 04:17:40;;;;;;;22.37;9.87;;;;;;;0.86;34.18;100819.22;5108740;28;20506;-74
2021/12/12 04:20:28;;;;;;;89.53;10.67;;;;;;;1.51;33.68;100838.00;5091978;28;20119;-74
2021/12/12 04:22:54;;;;;;;16.53;6.90;;;;;;;0.80;33.92;100839.59;5074769;28;20090;-73
2021/12/12 04:25:22;;;;;;;21.90;8.67;;;;;;;1.12;33.93;100833.75;5091890;28;20109;-74
2021/12/12 04:27:48;;;;;;;34.97;8.40;;;;;;;0.50;33.93;100840.91;5076367;28;20044;-73
2021/12/12 04:30:15;;;;;;;23.33;9.47;;;;;;;0.51;34.50;100827.75;5075445;28;20048;-73
2021/12/12 04:32:42;;;;;;;27.50;9.97;;;;;;;0.82;34.33;100837.72;5058688;28;20415;-73
2021/12/12 04:35:19;;;;;;;33.20;10.97;;;;;;;1.16;34.35;100840.53;5057694;28;20055;-73
2021/12/12 04:37:47;;;;;;;20.10;7.67;;;;;;;0.88;33.79;100832.22;5091806;28;20075;-73
2021/12/12 04:40:18;;;;;;;26.87;9.50;;;;;;;1.32;33.30;100841.53;5074625;28;20105;-73
2021/12/12 04:42:46;;;;;;;25.40;9.90;;;;;;;0.95;33.07;100810.97;5057724;28;20507;-74
2021/12/12 04:45:12;;;;;;;32.90;9.93;;;;;;;0.91;33.11;100850.41;5091495;28;20040;-74
2021/12/12 04:50:45;;;;;;;27.40;9.93;;;;;;;1.35;33.38;100849.25;5091081;28;20289;-75
2021/12/12 04:53:17;;;;;;;32.30;11.10;;;;;;;1.09;33.72;100854.81;5074524;28;20491;-74
2021/12/12 04:56:16;;;;;;;40.53;11.87;;;;;;;1.54;33.50;100852.69;5092667;28;20364;-74
2021/12/12 04:58:48;;;;;;;33.27;9.03;;;;;;;1.14;34.15;100851.06;5092009;28;20283;-74
2021/12/12 05:01:19;;;;;;;35.97;10.73;;;;;;;1.20;33.83;100850.78;5057512;28;20134;-74
2021/12/12 05:04:03;;;;;;;59.28;12.23;;;;;;;0.72;33.88;100857.38;5091465;28;20044;-74
2021/12/12 05:06:42;;;;;;;23.87;9.10;;;;;;;0.56;33.77;100864.16;5073887;28;20059;-76
2021/12/12 05:09:22;;;;;;;25.93;10.50;;;;;;;1.53;32.93;100830.91;5074043;28;20048;-73
2021/12/12 05:12:02;;;;;;;29.05;11.30;;;;;;;1.85;32.72;100870.41;5092248;28;20043;-76
2021/12/12 05:14:35;;;;;;;29.93;10.90;;;;;;;2.10;32.54;100866.56;5091227;28;20086;-75
2021/12/12 05:17:04;;;;;;;23.23;9.47;;;;;;;1.56;32.56;100864.81;5057985;28;20032;-74
2021/12/12 05:19:30;;;;;;;30.13;10.97;;;;;;;1.57;32.62;100844.69;5073224;28;20048;-74
2021/12/12 05:22:00;;;;;;;40.43;11.43;;;;;;;1.72;32.35;100860.53;5091314;28;20071;-74
2021/12/12 05:24:27;;;;;;;48.43;11.77;;;;;;;2.02;32.71;100866.06;5090251;28;20040;-75
2021/12/12 05:26:59;;;;;;;30.40;10.00;;;;;;;1.88;32.26;100870.31;5057130;28;20043;-76
2021/12/12 05:29:32;;;;;;;29.70;10.37;;;;;;;2.12;32.12;100867.34;5056688;28;20109;-75
2021/12/12 05:32:01;;;;;;;25.70;10.93;;;;;;;2.08;32.45;100871.00;5073572;28;20040;-74
2021/12/12 05:34:30;;;;;;;72.30;11.37;;;;;;;1.97;32.57;100862.81;5090372;28;20085;-73
2021/12/12 05:36:57;;;;;;;64.90;10.93;;;;;;;1.83;32.79;100864.44;5074145;28;20036;-74
2021/12/12 05:39:25;;;;;;;45.73;10.93;;;;;;;1.83;32.70;100843.47;5091567;28;20070;-74
2021/12/12 05:41:52;;;;;;;67.13;11.87;;;;;;;2.24;33.31;100869.34;5056557;28;20487;-74
2021/12/12 05:44:19;;;;;;;40.77;12.07;;;;;;;2.13;32.17;100855.91;5091290;28;20048;-76
2021/12/12 05:46:45;;;;;;;51.47;13.23;;;;;;;2.36;32.23;100875.75;5090341;28;20512;-75
2021/12/12 05:49:11;;;;;;;75.23;12.43;;;;;;;2.38;31.95;100879.16;5056854;28;20039;-76
2021/12/12 05:51:37;;;;;;;68.93;12.30;;;;;;;1.93;32.18;100877.00;5091074;28;20492;-74
2021/12/12 05:54:04;;;;;;;62.07;12.03;;;;;;;2.43;32.50;100872.72;5090175;28;20069;-74
2021/12/12 05:56:36;;;;;;;39.93;12.80;;;;;;;2.98;31.55;100874.22;5091057;28;20130;-74
2021/12/12 05:59:04;;;;;;;40.83;11.80;;;;;;;3.01;31.09;100881.09;5073766;28;20570;-74
2021/12/12 06:01:30;;;;;;;33.63;11.57;;;;;;;2.71;31.40;100877.41;5090535;28;20056;-74
2021/12/12 06:03:57;;;;;;;52.90;12.53;;;;;;;2.86;31.41;100882.72;5073353;28;20505;-74
2021/12/12 06:06:27;;;;;;;43.43;12.70;;;;;;;2.75;32.03;100877.19;5090420;28;20055;-75
2021/12/12 06:08:56;;;;;;;35.45;12.48;;;;;;;2.96;31.60;100883.13;5074536;28;20460;-75
2021/12/12 06:11:24;;;;;;;55.87;12.53;;;;;;;2.78;31.62;100884.91;5090397;28;20491;-75
2021/12/12 06:13:50;;;;;;;37.73;12.13;;;;;;;2.43;31.51;100851.75;5090164;28;20047;-74
2021/12/12 06:16:19;;;;;;;41.73;12.70;;;;;;;2.57;31.79;100888.63;5073258;28;20040;-74
2021/12/12 06:18:53;;;;;;;38.30;12.67;;;;;;;3.01;31.84;100874.06;5073343;28;20128;-73
2021/12/12 06:21:19;;;;;;;40.77;12.23;;;;;;;2.96;31.33;100867.38;5073285;28;20142;-74
2021/12/12 06:23:45;;;;;;;44.83;13.50;;;;;;;2.88;31.72;100870.41;5056228;28;20522;-74
2021/12/12 06:26:12;;;;;;;38.23;12.63;;;;;;;2.81;31.19;100876.91;5089574;28;20055;-76
2021/12/12 06:28:40;;;;;;;47.77;12.77;;;;;;;3.13;30.85;100869.94;5072900;28;20040;-74
2021/12/12 06:31:07;;;;;;;44.93;12.70;;;;;;;3.00;31.24;100869.75;5090648;28;20048;-73
2021/12/12 06:33:33;;;;;;;50.20;13.93;;;;;;;2.74;31.37;100872.88;5090437;28;20048;-74
2021/12/12 06:36:00;;;;;;;42.77;13.00;;;;;;;3.04;31.13;100878.31;5090429;28;20052;-74
2021/12/12 06:38:26;;;;;;;40.53;12.70;;;;;;;2.86;31.22;100863.53;5090487;28;20070;-74
2021/12/12 06:40:53;;;;;;;47.77;12.70;;;;;;;2.51;32.07;100877.59;5091224;28;20040;-74
2021/12/12 06:43:22;;;;;;;49.03;12.10;;;;;;;2.68;32.10;100875.81;5075178;28;20050;-74
2021/12/12 06:45:49;;;;;;;37.37;12.97;;;;;;;2.32;32.33;100875.03;5093623;28;20084;-75
2021/12/12 06:48:16;;;;;;;52.57;13.90;;;;;;;2.94;31.96;100875.31;5042184;28;20047;-74
2021/12/12 06:50:44;;;;;;;45.50;12.73;;;;;;;2.84;31.62;100887.22;5074171;28;20140;-74
2021/12/12 06:53:12;;;;;;;45.07;12.93;;;;;;;2.59;32.17;100886.78;5091578;28;20048;-73
2021/12/12 06:55:43;;;;;;;148.03;18.90;;;;;;;2.00;33.01;100875.78;5092454;28;20138;-73
2021/12/12 06:58:11;;;;;;;55.33;12.70;;;;;;;2.03;33.52;100875.63;5076720;28;20058;-74
2021/12/12 07:00:37;;;;;;;58.83;13.70;;;;;;;2.27;32.75;100874.44;5075331;28;20043;-74
2021/12/12 07:03:04;;;;;;;40.13;12.43;;;;;;;2.25;33.16;100881.53;5092517;28;20044;-74
2021/12/12 07:05:31;;;;;;;93.33;15.57;;;;;;;2.34;33.00;100873.19;5057018;28;20060;-74
2021/12/12 07:07:58;;;;;;;59.37;14.20;;;;;;;2.85;32.66;100874.94;5107799;28;20055;-75
2021/12/12 07:10:27;;;;;;;181.67;20.10;;;;;;;2.65;32.64;100848.88;5090349;28;20507;-74
2021/12/12 07:12:56;;;;;;;56.50;14.57;;;;;;;3.07;32.07;100875.53;5090085;28;20496;-74
2021/12/12 07:15:33;;;;;;;57.47;13.67;;;;;;;3.44;31.88;100877.88;5090418;28;20044;-74
2021/12/12 07:18:05;;;;;;;44.07;12.27;;;;;;;2.95;32.31;100890.13;5073372;28;20052;-74
2021/12/12 07:20:31;;;;;;;63.60;16.17;;;;;;;2.50;32.79;100878.53;5089741;28;20055;-73
2021/12/12 07:22:57;;;;;;;51.47;13.90;;;;;;;2.67;33.22;100866.25;5106874;28;20056;-74
2021/12/12 07:25:23;;;;;;;48.27;13.93;;;;;;;2.88;32.64;100867.78;5056425;28;20718;-75
2021/12/12 07:27:51;;;;;;;84.63;15.13;;;;;;;3.24;32.67;100846.59;5106871;28;20040;-74
2021/12/12 07:30:18;;;;;;;60.43;13.73;;;;;;;3.21;32.21;100865.16;5090149;28;20487;-74
2021/12/12 07:32:44;;;;;;;136.63;16.83;;;;;;;2.73;33.12;100837.09;5089601;28;20070;-74
2021/12/12 07:35:13;;;;;;;67.40;14.53;;;;;;;2.37;33.93;100872.22;5089028;28;20051;-73
2021/12/12 07:37:39;;;;;;;60.70;14.30;;;;;;;2.41;33.73;100855.41;5055267;28;20075;-74
2021/12/12 07:40:07;;;;;;;56.13;14.47;;;;;;;2.29;33.94;100853.38;5088951;28;20044;-74
2021/12/12 07:42:33;;;;;;;50.77;14.57;;;;;;;2.66;33.58;100861.94;5092628;28;20101;-74
2021/12/12 07:45:00;;;;;;;49.17;15.37;;;;;;;2.63;33.22;100863.88;5092950;28;20048;-73
2021/12/12 07:47:28;;;;;;;67.87;15.20;;;;;;;2.57;33.55;100861.56;5075563;28;20055;-74
2021/12/12 07:49:55;;;;;;;135.30;17.63;;;;;;;2.64;33.81;100863.81;5059273;28;20066;-74
2021/12/12 07:52:25;;;;;;;82.30;15.30;;;;;;;2.84;33.52;100853.13;5059020;28;20055;-74
2021/12/12 07:54:52;;;;;;;100.55;15.32;;;;;;;2.72;33.62;100858.16;5092363;28;20451;-74
2021/12/12 07:57:19;;;;;;;73.97;15.83;;;;;;;2.57;34.13;100845.84;5092485;28;20040;-75
2021/12/12 07:59:46;;;;;;;72.27;14.23;;;;;;;2.52;34.04;100853.91;5059691;28;20066;-74
2021/12/12 08:02:15;;;;;;;49.70;15.43;;;;;;;2.96;33.78;100844.59;5076009;28;20098;-74
2021/12/12 08:04:42;;;;;;;50.50;13.63;;;;;;;2.86;33.63;100842.56;5058511;28;20105;-74
2021/12/12 08:07:14;;;;;;;49.17;13.87;;;;;;;2.67;34.22;100850.53;5042666;28;20164;-74
2021/12/12 08:09:43;;;;;;;56.30;15.90;;;;;;;2.98;33.42;100855.84;5092993;28;20174;-74
2021/12/12 08:12:11;;;;;;;77.40;17.40;;;;;;;3.27;33.26;100838.56;5076309;28;20454;-74
2021/12/12 08:14:37;;;;;;;56.70;15.17;;;;;;;3.06;33.10;100874.66;5043383;28;20040;-74
2021/12/12 08:17:05;;;;;;;51.33;15.83;;;;;;;3.18;33.09;100837.25;5094315;28;20052;-74
2021/12/12 08:19:31;;;;;;;80.20;16.80;;;;;;;2.81;33.16;100861.16;5092419;28;20036;-74
2021/12/12 08:22:01;;;;;;;47.00;14.97;;;;;;;3.74;32.64;100859.59;5093734;28;20036;-75
2021/12/12 08:24:27;;;;;;;44.03;15.13;;;;;;;3.35;32.04;100870.50;5091661;28;20052;-74
2021/12/12 08:26:55;;;;;;;54.60;15.93;;;;;;;3.80;32.26;100856.63;5058472;28;20087;-74
2021/12/12 08:29:21;;;;;;;60.83;17.33;;;;;;;3.60;31.90;100860.34;5092218;28;20128;-74
2021/12/12 08:31:47;;;;;;;59.83;15.23;;;;;;;3.05;32.69;100856.38;5092295;28;20048;-75
2021/12/12 08:34:13;;;;;;;60.03;16.00;;;;;;;3.08;33.30;100841.34;5095504;28;20044;-75
2021/12/12 08:36:43;;;;;;;61.73;17.00;;;;;;;3.75;32.56;100821.88;5110004;28;20130;-74
2021/12/12 08:39:10;;;;;;;62.67;16.83;;;;;;;3.70;32.80;100824.75;5092853;28;20036;-75
2021/12/12 08:41:37;;;;;;;62.27;15.63;;;;;;;3.69;32.36;100830.09;5075090;28;20135;-74
2021/12/12 08:44:04;;;;;;;57.00;16.77;;;;;;;3.56;33.01;100835.19;5092466;28;20044;-76
2021/12/12 08:46:31;;;;;;;75.53;18.17;;;;;;;3.47;33.62;100805.00;5058090;28;20047;-75
2021/12/12 08:48:58;;;;;;;78.53;16.77;;;;;;;3.17;33.70;100795.34;5057963;28;20063;-75
2021/12/12 08:51:30;;;;;;;58.23;16.70;;;;;;;3.42;33.85;100840.34;5075396;28;20043;-75
2021/12/12 08:54:01;;;;;;;65.93;18.67;;;;;;;3.47;34.19;100843.56;5074985;28;20100;-75
2021/12/12 08:56:43;;;;;;;61.97;15.80;;;;;;;3.74;33.31;100833.34;5091836;28;20094;-75
2021/12/12 08:59:12;;;;;;;56.37;16.43;;;;;;;4.10;33.02;100844.38;5109617;28;20187;-75
2021/12/12 09:01:39;;;;;;;57.40;17.53;;;;;;;3.83;33.09;100848.56;5094306;28;20127;-74
2021/12/12 09:04:07;;;;;;;63.87;17.73;;;;;;;4.26;32.87;100837.31;5092063;28;20075;-75
2021/12/12 09:06:37;;;;;;;71.57;19.10;;;;;;;4.22;32.48;100833.13;5091057;28;20138;-75
2021/12/12 09:09:20;;;;;;;94.10;18.80;;;;;;;4.63;32.30;100826.28;5091832;28;20052;-75
2021/12/12 09:12:10;;;;;;;71.63;16.67;;;;;;;4.40;33.05;100817.13;5091303;28;20069;-75
2021/12/12 09:14:47;;;;;;;55.88;16.45;;;;;;;4.53;33.10;100835.69;5090650;28;20044;-71
2021/12/12 09:17:17;;;;;;;60.03;16.10;;;;;;;4.20;33.31;100841.13;5073665;28;20059;-71
2021/12/12 09:19:57;;;;;;;73.87;18.17;;;;;;;4.59;33.21;100838.78;5073530;28;20059;-72
2021/12/12 09:22:31;;;;;;;76.53;18.07;;;;;;;4.55;33.15;100833.81;5090705;28;20047;-71
2021/12/12 09:25:15;;;;;;;73.83;18.47;;;;;;;3.96;33.42;100850.41;5090430;28;20104;-71
2021/12/12 09:27:45;;;;;;;72.03;17.53;;;;;;;4.46;33.57;100835.19;5090631;28;20047;-71
2021/12/12 09:30:14;;;;;;;88.70;18.53;;;;;;;4.43;33.66;100821.34;5090484;28;20113;-71
2021/12/12 09:33:13;;;;;;;64.63;16.60;;;;;;;4.48;33.55;100824.56;5056828;28;20085;-71
2021/12/12 09:35:41;;;;;;;94.50;18.10;;;;;;;4.01;33.97;100823.88;5073139;28;20142;-71
2021/12/12 09:38:13;;;;;;;91.67;18.00;;;;;;;4.26;33.59;100824.16;5056665;28;20415;-72
2021/12/12 09:41:11;;;;;;;122.93;17.10;;;;;;;4.73;33.79;100817.78;5056682;28;20040;-72
2021/12/12 09:44:20;;;;;;;70.73;17.60;;;;;;;4.39;34.23;100823.34;5057376;28;20187;-72
2021/12/12 09:53:18;;;;;;;73.33;19.83;;;;;;;5.09;33.44;100820.78;5075498;28;20036;-71
2021/12/12 09:56:20;;;;;;;74.47;17.77;;;;;;;5.09;33.65;100823.41;5089821;28;20562;-71
2021/12/12 09:58:59;;;;;;;72.23;19.33;;;;;;;5.18;33.56;100825.47;5052362;28;20511;-71
2021/12/12 10:01:30;;;;;;;92.47;19.50;;;;;;;5.16;33.59;100830.00;5089790;28;20461;-72
2021/12/12 10:04:05;;;;;;;;;;;;;;;5.54;33.11;100806.50;5073204;28;20142;-71
2021/12/12 10:06:58;;;;;;;86.70;17.97;;;;;;;4.84;34.72;100810.03;5072701;28;19920;-72
2021/12/12 10:09:33;;;;;;;78.30;18.97;;;;;;;5.10;34.32;100814.56;5073042;28;20483;-72
2021/12/12 10:12:08;;;;;;;107.13;19.97;;;;;;;5.17;33.95;100815.03;5056251;28;20130;-73
2021/12/12 10:14:49;;;;;;;145.93;18.90;;;;;;;4.94;34.13;100813.81;5089331;28;20044;-71
2021/12/12 10:17:33;;;;;;;;;;;;;;;5.40;33.61;100813.59;5073294;28;20059;-71
2021/12/12 10:20:21;;;;;;;67.13;17.50;;;;;;;4.93;34.52;100793.72;5090049;28;19920;-71
2021/12/12 10:22:55;;;;;;;70.07;19.07;;;;;;;5.41;34.00;100789.81;5072693;28;20066;-72
2021/12/12 10:25:30;;;;;;;96.50;17.33;;;;;;;4.92;34.90;100793.81;5056472;28;20075;-72
2021/12/12 10:28:11;;;;;;;88.47;18.70;;;;;;;5.35;34.49;100778.81;5090066;28;20043;-71
2021/12/12 10:30:45;;;;;;;57.38;17.85;;;;;;;5.34;34.40;100777.94;5056317;28;20408;-74
2021/12/12 10:33:22;;;;;;;66.60;17.53;;;;;;;5.38;34.51;100782.09;5073667;28;20067;-74
2021/12/12 10:36:01;;;;;;;70.03;17.27;;;;;;;5.66;34.15;100778.53;5056427;28;20189;-75
2021/12/12 10:38:58;;;;;;;129.23;21.37;;;;;;;5.77;33.71;100778.66;5091660;28;20044;-75
2021/12/12 10:41:38;;;;;;;97.87;20.10;;;;;;;5.68;34.08;100785.38;5072626;28;20047;-75
2021/12/12 10:44:04;;;;;;;106.13;21.02;;;;;;;5.23;33.98;100797.06;5089662;28;20043;-74
2021/12/12 10:46:36;;;;;;;87.97;20.43;;;;;;;5.71;34.13;100789.59;5056116;28;20046;-75
2021/12/12 10:49:41;;;;;;;89.43;19.07;;;;;;;5.43;33.50;100692.22;5072101;28;20055;-75
2021/12/12 10:52:12;;;;;;;97.57;18.87;;;;;;;5.61;34.29;100784.09;5072693;28;20040;-74
2021/12/12 10:54:51;;;;;;;101.97;18.73;;;;;;;5.91;34.23;100781.25;5089464;28;20109;-75
2021/12/12 10:57:25;;;;;;;86.80;19.13;;;;;;;5.66;34.49;100776.72;5089147;28;20048;-73
2021/12/12 10:59:57;;;;;;;91.23;19.30;;;;;;;6.02;33.77;100770.84;5072302;28;20047;-75
2021/12/12 11:02:32;;;;;;;113.03;19.53;;;;;;;5.63;34.04;100790.09;5089747;28;20131;-74
2021/12/12 11:05:04;;;;;;;99.27;20.03;;;;;;;5.94;34.11;100773.16;5072573;28;20052;-75
2021/12/12 11:07:39;;;;;;;83.03;18.40;;;;;;;5.71;33.93;100774.63;5070735;28;20059;-75
2021/12/12 11:10:17;;;;;;;121.57;20.93;;;;;;;5.94;33.89;100787.19;5037164;28;20119;-74
2021/12/12 11:12:55;;;;;;;111.40;18.63;;;;;;;6.27;33.53;100782.28;5053169;28;20040;-75
2021/12/12 11:15:34;;;;;;;93.13;20.10;;;;;;;6.01;34.05;100793.75;5086022;28;20048;-75
2021/12/12 11:18:24;;;;;;;74.50;19.17;;;;;;;6.13;34.17;100798.22;5056049;28;20043;-74
2021/12/12 11:21:02;;;;;;;92.67;19.37;;;;;;;6.38;33.73;100805.34;5072298;28;20039;-73
2021/12/12 11:23:38;;;;;;;84.07;19.50;;;;;;;6.26;34.27;100807.00;5058209;28;20526;-71
2021/12/12 11:26:34;;;;;;;79.43;20.97;;;;;;;6.64;33.43;100784.13;5058109;28;20040;-73
2021/12/12 11:29:07;;;;;;;95.63;20.87;;;;;;;6.65;33.82;100792.91;5048751;28;20423;-73
2021/12/12 11:32:00;;;;;;;114.23;21.47;;;;;;;6.81;33.22;100797.00;5036622;28;20043;-74
2021/12/12 11:34:27;;;;;;;92.30;19.27;;;;;;;6.10;34.34;100793.16;5069067;28;20044;-73
2021/12/12 11:37:34;;;;;;;99.30;20.57;;;;;;;6.66;33.43;100755.84;5074859;28;20112;-74
2021/12/12 11:40:13;;;;;;;122.53;19.13;;;;;;;6.83;33.42;100789.00;5072715;28;20123;-74
2021/12/12 11:42:47;;;;;;;107.20;21.37;;;;;;;6.36;34.29;100771.16;5107231;28;20040;-74
2021/12/12 11:45:30;;;;;;;156.27;22.40;;;;;;;6.23;34.33;100779.97;5068683;28;20029;-74
2021/12/12 11:48:24;;;;;;;142.90;19.23;;;;;;;6.22;34.86;100771.22;5080174;28;20113;-74
2021/12/12 11:50:59;;;;;;;195.97;21.60;;;;;;;6.06;35.40;100775.81;5055488;28;20060;-73
2021/12/12 11:53:45;;;;;;;132.03;20.17;;;;;;;6.17;35.10;100790.94;5086749;28;20127;-74
2021/12/12 11:56:14;;;;;;;100.00;21.20;;;;;;;6.10;34.83;100776.47;5053611;28;20059;-73
2021/12/12 11:58:46;;;;;;;115.30;18.73;;;;;;;6.18;34.95;100775.00;5057816;28;20047;-74
2021/12/12 12:01:40;;;;;;;194.33;21.77;;;;;;;6.46;34.87;100779.25;5074441;28;20210;-74
2021/12/12 12:04:24;;;;;;;120.37;20.40;;;;;;;5.80;35.26;100781.94;5054377;28;20088;-71